createdAt,value
2022-09-14T00:01:30.101Z,14.56
2022-09-14T00:03:59.715Z,14.57
2022-09-14T00:06:28.619Z,14.57
2022-09-14T00:09:00.719Z,14.53
2022-09-14T00:11:31.088Z,14.49
2022-09-14T00:14:00.289Z,14.47
2022-09-14T00:16:31.460Z,14.50
2022-09-14T00:19:01.364Z,14.49
2022-09-14T00:21:29.685Z,14.48
2022-09-14T00:23:58.781Z,14.47
2022-09-14T00:26:26.759Z,14.42
2022-09-14T00:28:58.010Z,14.37
2022-09-14T00:31:27.054Z,14.36
2022-09-14T00:33:55.148Z,14.34
2022-09-14T00:36:24.905Z,14.32
2022-09-14T00:38:53.296Z,14.34
2022-09-14T00:41:24.993Z,14.33
2022-09-14T00:43:57.825Z,14.34
2022-09-14T00:46:27.594Z,14.32
2022-09-14T00:48:57.199Z,14.31
2022-09-14T00:51:26.148Z,14.31
2022-09-14T00:53:55.270Z,14.31
2022-09-14T00:56:24.487Z,14.29
2022-09-14T00:58:54.384Z,14.29
2022-09-14T01:01:22.227Z,14.23
2022-09-14T01:03:50.007Z,14.24
2022-09-14T01:06:26.208Z,14.25
2022-09-14T01:09:14.259Z,14.27
2022-09-14T01:11:56.570Z,14.26
2022-09-14T01:14:32.939Z,14.26
2022-09-14T01:17:21.143Z,14.27
2022-09-14T01:20:14.212Z,14.25
2022-09-14T01:22:49.091Z,14.25
2022-09-14T01:25:32.091Z,14.26
2022-09-14T01:28:04.358Z,14.25
2022-09-14T01:30:36.214Z,14.22
2022-09-14T01:33:10.182Z,14.21
2022-09-14T01:35:44.758Z,14.20
2022-09-14T01:38:20.173Z,14.20
2022-09-14T01:40:50.197Z,14.19
2022-09-14T01:43:26.003Z,14.17
2022-09-14T01:45:57.042Z,14.17
2022-09-14T01:48:31.694Z,14.16
2022-09-14T01:51:05.261Z,14.16
2022-09-14T01:53:38.061Z,14.13
2022-09-14T01:56:10.486Z,14.11
2022-09-14T01:58:45.200Z,14.09
2022-09-14T02:01:18.226Z,14.08
2022-09-14T02:03:50.911Z,14.08
2022-09-14T02:06:23.961Z,14.06
2022-09-14T02:08:53.095Z,14.05
2022-09-14T02:11:20.901Z,14.02
2022-09-14T02:13:50.148Z,14.01
2022-09-14T02:16:18.679Z,14.00
2022-09-14T02:18:46.614Z,13.99
2022-09-14T02:21:17.984Z,13.97
2022-09-14T02:23:45.854Z,13.96
2022-09-14T02:26:13.930Z,13.93
2022-09-14T02:28:41.661Z,13.91
2022-09-14T02:31:27.955Z,13.89
2022-09-14T02:34:04.250Z,13.87
2022-09-14T02:36:42.750Z,13.85
2022-09-14T02:39:18.568Z,13.80
2022-09-14T02:41:51.509Z,13.78
2022-09-14T02:44:27.509Z,13.75
2022-09-14T02:47:02.170Z,13.71
2022-09-14T02:49:38.946Z,13.69
2022-09-14T02:52:13.970Z,13.68
2022-09-14T02:54:47.912Z,13.66
2022-09-14T02:57:15.810Z,13.65
2022-09-14T02:59:43.736Z,13.63
2022-09-14T03:02:12.903Z,13.58
2022-09-14T03:04:40.653Z,13.57
2022-09-14T03:07:08.685Z,13.55
2022-09-14T03:09:36.588Z,13.57
2022-09-14T03:12:04.908Z,13.56
2022-09-14T03:14:32.652Z,13.54
2022-09-14T03:17:00.423Z,13.54
2022-09-14T03:19:29.448Z,13.53
2022-09-14T03:21:57.133Z,13.52
2022-09-14T03:24:24.875Z,13.50
2022-09-14T03:26:52.865Z,13.52
2022-09-14T03:29:20.568Z,13.51
2022-09-14T03:31:48.292Z,13.52
2022-09-14T03:34:16.245Z,13.49
2022-09-14T03:36:45.304Z,13.46
2022-09-14T03:39:13.317Z,13.45
2022-09-14T03:41:41.059Z,13.45
2022-09-14T03:44:10.796Z,13.45
2022-09-14T03:46:38.743Z,13.42
2022-09-14T03:49:06.820Z,13.41
2022-09-14T03:51:35.064Z,13.39
2022-09-14T03:54:05.904Z,13.38
2022-09-14T03:56:33.674Z,13.35
2022-09-14T03:59:01.381Z,13.35
2022-09-14T04:01:29.187Z,13.31
2022-09-14T04:03:57.038Z,13.30
2022-09-14T04:06:26.036Z,13.26
2022-09-14T04:08:55.175Z,13.27
2022-09-14T04:11:25.778Z,13.25
2022-09-14T04:13:54.027Z,13.23
2022-09-14T04:16:22.875Z,13.20
2022-09-14T04:18:50.926Z,13.19
2022-09-14T04:21:20.773Z,13.18
2022-09-14T04:24:13.468Z,13.16
2022-09-14T04:26:37.903Z,13.13
2022-09-14T04:29:06.015Z,13.11
2022-09-14T04:31:34.252Z,13.06
2022-09-14T04:34:01.984Z,13.06
2022-09-14T04:36:31.150Z,13.07
2022-09-14T04:39:01.265Z,13.06
2022-09-14T04:41:30.729Z,13.06
2022-09-14T04:44:00.820Z,13.04
2022-09-14T04:46:30.513Z,13.01
2022-09-14T04:48:59.267Z,13.02
2022-09-14T04:51:28.828Z,13.03
2022-09-14T04:53:59.077Z,13.03
2022-09-14T04:56:27.924Z,13.05
2022-09-14T04:58:57.951Z,13.08
2022-09-14T05:01:29.941Z,13.12
2022-09-14T05:03:58.711Z,13.15
2022-09-14T05:06:28.392Z,13.17
2022-09-14T05:08:57.033Z,13.20
2022-09-14T05:11:28.682Z,13.21
2022-09-14T05:13:57.097Z,13.22
2022-09-14T05:16:29.227Z,13.25
2022-09-14T05:18:58.794Z,13.24
2022-09-14T05:21:26.656Z,13.29
2022-09-14T05:23:55.970Z,13.33
2022-09-14T05:26:25.441Z,13.39
2022-09-14T05:28:54.853Z,13.46
2022-09-14T05:31:23.942Z,13.56
2022-09-14T05:33:53.326Z,13.63
2022-09-14T05:36:21.625Z,13.68
2022-09-14T05:38:49.431Z,13.74
2022-09-14T05:41:18.173Z,13.79
2022-09-14T05:43:46.169Z,13.84
2022-09-14T05:46:16.851Z,13.88
2022-09-14T05:48:44.979Z,13.89
2022-09-14T05:51:16.853Z,13.86
2022-09-14T05:53:48.024Z,13.81
2022-09-14T05:56:16.063Z,13.89
2022-09-14T05:58:44.309Z,13.97
2022-09-14T06:01:13.912Z,14.10
2022-09-14T06:03:42.087Z,14.23
2022-09-14T06:06:11.717Z,14.33
2022-09-14T06:08:41.873Z,14.40
2022-09-14T06:11:11.961Z,14.42
2022-09-14T06:13:39.799Z,14.51
2022-09-14T06:16:10.127Z,14.59
2022-09-14T06:18:39.098Z,14.68
2022-09-14T06:21:07.685Z,14.74
2022-09-14T06:23:35.499Z,14.81
2022-09-14T06:26:06.137Z,14.89
2022-09-14T06:28:35.262Z,14.99
2022-09-14T06:31:04.499Z,15.09
2022-09-14T06:33:32.633Z,15.16
2022-09-14T06:36:02.206Z,15.20
2022-09-14T06:38:30.703Z,15.25
2022-09-14T06:41:00.710Z,15.28
2022-09-14T06:43:32.535Z,15.35
2022-09-14T06:46:02.424Z,15.38
2022-09-14T06:48:31.488Z,15.45
2022-09-14T06:50:59.646Z,15.51
2022-09-14T06:53:27.518Z,15.51
2022-09-14T06:56:00.148Z,15.46
2022-09-14T06:58:29.300Z,15.37
2022-09-14T07:01:02.714Z,15.36
2022-09-14T07:03:31.229Z,15.34
2022-09-14T07:06:03.392Z,15.32
2022-09-14T07:08:31.156Z,15.32
2022-09-14T07:10:59.106Z,15.34
2022-09-14T07:13:27.241Z,15.37
2022-09-14T07:15:56.745Z,15.41
2022-09-14T07:18:28.391Z,15.48
2022-09-14T07:20:56.274Z,15.56
2022-09-14T07:23:24.024Z,15.61
2022-09-14T07:26:00.907Z,15.73
2022-09-14T07:28:28.679Z,15.82
2022-09-14T07:30:59.103Z,15.96
2022-09-14T07:33:27.332Z,16.20
2022-09-14T07:35:55.149Z,16.36
2022-09-14T07:38:35.826Z,16.44
2022-09-14T07:41:11.141Z,16.53
2022-09-14T07:43:38.884Z,16.59
2022-09-14T07:46:08.473Z,16.63
2022-09-14T07:48:37.452Z,16.62
2022-09-14T07:51:07.876Z,16.70
2022-09-14T07:53:38.239Z,16.81
2022-09-14T07:56:07.379Z,16.94
2022-09-14T07:58:35.430Z,17.07
2022-09-14T08:01:05.721Z,17.10
2022-09-14T08:03:36.254Z,17.19
2022-09-14T08:06:07.170Z,17.20
2022-09-14T08:08:37.085Z,17.28
2022-09-14T08:11:06.765Z,17.33
2022-09-14T08:13:35.783Z,17.36
2022-09-14T08:16:04.928Z,17.50
2022-09-14T08:18:35.719Z,17.61
2022-09-14T08:21:07.887Z,17.77
2022-09-14T08:23:36.416Z,17.85
2022-09-14T08:26:05.468Z,18.06
2022-09-14T08:28:33.911Z,18.27
2022-09-14T08:31:06.220Z,18.39
2022-09-14T08:33:37.569Z,18.50
2022-09-14T08:36:05.691Z,18.66
2022-09-14T08:38:33.610Z,18.87
2022-09-14T08:41:12.603Z,19.13
2022-09-14T08:43:40.703Z,19.23
2022-09-14T08:46:28.295Z,19.24
2022-09-14T08:48:58.091Z,19.20
2022-09-14T08:51:26.527Z,19.38
2022-09-14T08:53:57.087Z,19.43
2022-09-14T08:56:27.646Z,19.38
2022-09-14T08:59:17.990Z,19.25
2022-09-14T09:01:55.295Z,19.23
2022-09-14T09:04:40.369Z,19.20
2022-09-14T09:07:15.078Z,19.28
2022-09-14T09:09:46.496Z,19.34
2022-09-14T09:12:18.296Z,19.51
2022-09-14T09:14:52.113Z,19.54
2022-09-14T09:17:24.099Z,19.51
2022-09-14T09:20:06.614Z,19.48
2022-09-14T09:22:39.884Z,19.61
2022-09-14T09:25:16.619Z,19.46
2022-09-14T09:27:44.405Z,19.51
2022-09-14T09:30:15.387Z,19.65
2022-09-14T09:32:43.708Z,19.76
2022-09-14T09:35:30.153Z,19.82
2022-09-14T09:38:00.919Z,19.77
2022-09-14T09:40:35.283Z,19.78
2022-09-14T09:43:09.224Z,19.76
2022-09-14T09:45:56.529Z,19.84
2022-09-14T09:48:28.502Z,19.85
2022-09-14T09:51:08.381Z,19.92
2022-09-14T09:53:39.825Z,20.10
2022-09-14T09:56:08.505Z,20.39
2022-09-14T09:58:38.210Z,20.44
2022-09-14T10:01:12.396Z,20.36
2022-09-14T10:03:41.660Z,20.39
2022-09-14T10:06:12.904Z,20.33
2022-09-14T10:08:43.425Z,20.14
2022-09-14T10:11:36.510Z,20.29
2022-09-14T10:14:05.764Z,20.33
2022-09-14T10:16:38.129Z,20.39
2022-09-14T10:19:15.023Z,20.25
2022-09-14T10:24:37.061Z,20.30
2022-09-14T10:27:37.564Z,20.41
2022-09-14T10:30:08.117Z,20.52
2022-09-14T10:32:37.857Z,20.75
2022-09-14T10:35:13.818Z,20.83
2022-09-14T10:37:51.073Z,20.77
2022-09-14T10:40:23.528Z,20.83
2022-09-14T10:43:04.248Z,20.84
2022-09-14T10:45:37.016Z,20.93
2022-09-14T10:48:20.057Z,21.01
2022-09-14T10:50:58.751Z,20.96
2022-09-14T10:53:41.318Z,20.91
2022-09-14T10:56:18.304Z,21.04
2022-09-14T10:59:20.616Z,20.99
2022-09-14T11:02:29.573Z,21.02
2022-09-14T11:05:16.323Z,21.03
2022-09-14T11:07:56.231Z,21.16
2022-09-14T11:10:31.162Z,21.37
2022-09-14T11:13:35.246Z,21.58
2022-09-14T11:16:10.969Z,21.76
2022-09-14T11:18:48.385Z,21.83
2022-09-14T11:21:24.538Z,21.95
2022-09-14T11:23:56.868Z,21.80
2022-09-14T11:26:31.461Z,21.72
2022-09-14T11:29:10.172Z,21.81
2022-09-14T11:31:55.286Z,21.95
2022-09-14T11:34:36.956Z,22.02
2022-09-14T11:37:08.405Z,22.07
2022-09-14T11:39:39.526Z,22.11
2022-09-14T11:42:11.752Z,22.17
2022-09-14T11:44:44.552Z,22.04
2022-09-14T11:47:18.049Z,22.05
2022-09-14T11:49:56.161Z,21.92
2022-09-14T11:52:25.715Z,21.87
2022-09-14T11:54:54.609Z,21.93
2022-09-14T11:57:26.774Z,22.03
2022-09-14T11:59:57.346Z,21.94
2022-09-14T12:02:49.196Z,21.68
2022-09-14T12:05:29.853Z,21.46
2022-09-14T12:08:06.883Z,21.52
2022-09-14T12:11:02.753Z,21.46
2022-09-14T12:13:30.588Z,21.33
2022-09-14T12:16:07.895Z,21.26
2022-09-14T12:18:37.698Z,21.10
2022-09-14T12:21:09.168Z,20.98
2022-09-14T12:23:46.153Z,20.81
2022-09-14T12:26:30.256Z,20.63
2022-09-14T12:29:04.016Z,20.41
2022-09-14T12:32:01.156Z,20.36
2022-09-14T12:34:32.182Z,20.53
2022-09-14T12:37:31.577Z,20.56
2022-09-14T12:40:31.950Z,20.54
2022-09-14T12:43:47.286Z,20.66
2022-09-14T12:46:41.652Z,20.64
2022-09-14T12:49:32.616Z,20.60
2022-09-14T12:52:30.055Z,20.51
2022-09-14T12:55:11.965Z,20.41
2022-09-14T12:57:48.184Z,20.41
2022-09-14T13:00:19.731Z,20.44
2022-09-14T13:03:02.355Z,20.43
2022-09-14T13:05:34.638Z,20.39
2022-09-14T13:08:09.685Z,20.38
2022-09-14T13:10:39.141Z,20.30
2022-09-14T13:13:15.069Z,20.25
2022-09-14T13:15:52.120Z,20.17
2022-09-14T13:18:31.090Z,20.13
2022-09-14T13:21:02.323Z,20.10
2022-09-14T13:23:33.590Z,20.12
2022-09-14T13:26:09.245Z,20.11
2022-09-14T13:28:37.130Z,20.13
2022-09-14T13:31:06.677Z,20.19
2022-09-14T13:33:34.776Z,20.20
2022-09-14T13:36:05.233Z,20.13
2022-09-14T13:38:35.585Z,20.05
2022-09-14T13:41:11.570Z,20.02
2022-09-14T13:43:41.719Z,19.99
2022-09-14T13:46:10.712Z,19.97
2022-09-14T13:48:40.940Z,19.96
2022-09-14T13:51:11.491Z,19.95
2022-09-14T13:53:42.518Z,20.01
2022-09-14T13:56:18.999Z,20.02
2022-09-14T13:58:47.438Z,19.94
2022-09-14T14:01:26.291Z,19.85
2022-09-14T14:03:54.259Z,19.82
2022-09-14T14:06:26.772Z,19.80
2022-09-14T14:08:57.990Z,19.76
2022-09-14T14:11:35.115Z,19.64
2022-09-14T14:14:14.441Z,19.55
2022-09-14T14:16:42.649Z,19.49
2022-09-14T14:19:28.580Z,19.43
2022-09-14T14:22:18.892Z,19.44
2022-09-14T14:27:38.178Z,19.36
2022-09-14T14:30:15.309Z,19.41
2022-09-14T14:32:43.302Z,19.48
2022-09-14T14:35:16.534Z,19.54
2022-09-14T14:37:45.773Z,19.58
2022-09-14T14:40:13.994Z,19.59
2022-09-14T14:42:42.961Z,19.56
2022-09-14T14:45:15.049Z,19.50
2022-09-14T14:47:43.021Z,19.42
2022-09-14T14:50:15.726Z,19.37
2022-09-14T14:52:44.959Z,19.28
2022-09-14T14:55:12.811Z,19.13
2022-09-14T14:57:40.816Z,19.05
2022-09-14T15:00:15.341Z,19.04
2022-09-14T15:02:43.774Z,19.06
2022-09-14T15:05:12.242Z,19.08
2022-09-14T15:07:40.375Z,19.03
2022-09-14T15:10:14.313Z,19.07
2022-09-14T15:12:42.169Z,19.08
2022-09-14T15:15:13.604Z,19.12
2022-09-14T15:17:41.494Z,19.10
2022-09-14T15:20:10.485Z,19.03
2022-09-14T15:22:40.416Z,18.96
2022-09-14T15:25:10.872Z,18.95
2022-09-14T15:27:38.690Z,18.88
2022-09-14T15:30:09.039Z,18.84
2022-09-14T15:32:37.497Z,18.82
2022-09-14T15:35:06.216Z,18.77
2022-09-14T15:37:34.057Z,18.83
2022-09-14T15:40:01.834Z,18.90
2022-09-14T15:42:31.226Z,18.98
2022-09-14T15:44:58.976Z,19.00
2022-09-14T15:47:26.811Z,19.03
2022-09-14T15:49:54.868Z,19.09
2022-09-14T15:52:22.598Z,19.08
2022-09-14T15:54:50.678Z,19.11
2022-09-14T15:57:18.609Z,19.07
2022-09-14T15:59:47.913Z,19.22
2022-09-14T16:02:16.914Z,19.35
2022-09-14T16:04:44.725Z,19.46
2022-09-14T16:07:12.662Z,19.53
2022-09-14T16:09:41.552Z,19.52
2022-09-14T16:12:10.665Z,19.48
2022-09-14T16:14:38.942Z,19.41
2022-09-14T16:17:08.549Z,19.33
2022-09-14T16:19:36.360Z,19.21
2022-09-14T16:22:04.505Z,19.11
2022-09-14T16:24:32.838Z,19.07
2022-09-14T16:27:00.953Z,19.03
2022-09-14T16:29:28.823Z,18.99
2022-09-14T16:31:57.057Z,18.97
2022-09-14T16:34:28.062Z,18.91
2022-09-14T16:36:58.720Z,18.83
2022-09-14T16:39:28.941Z,18.80
2022-09-14T16:41:57.360Z,18.77
2022-09-14T16:44:27.694Z,18.72
2022-09-14T16:46:57.727Z,18.68
2022-09-14T16:49:28.390Z,18.57
2022-09-14T16:51:56.505Z,18.54
2022-09-14T16:54:25.949Z,18.55
2022-09-14T16:56:56.955Z,18.55
2022-09-14T16:59:25.540Z,18.50
2022-09-14T17:01:54.902Z,18.48
2022-09-14T17:04:24.620Z,18.44
2022-09-14T17:06:56.119Z,18.37
2022-09-14T17:09:25.869Z,18.28
2022-09-14T17:11:55.089Z,18.20
2022-09-14T17:14:25.470Z,18.12
2022-09-14T17:16:53.942Z,18.04
2022-09-14T17:19:22.058Z,17.96
2022-09-14T17:21:50.541Z,17.87
2022-09-14T17:24:21.110Z,17.79
2022-09-14T17:26:49.340Z,17.71
2022-09-14T17:29:17.241Z,17.63
2022-09-14T17:32:10.228Z,17.54
2022-09-14T17:34:41.967Z,17.46
2022-09-14T17:37:09.836Z,17.38
2022-09-14T17:39:38.942Z,17.34
2022-09-14T17:42:06.984Z,17.27
2022-09-14T17:44:34.804Z,17.21
2022-09-14T17:47:02.863Z,17.15
2022-09-14T17:49:30.934Z,17.09
2022-09-14T17:51:58.850Z,17.06
2022-09-14T17:54:26.779Z,17.03
2022-09-14T17:56:56.016Z,16.97
2022-09-14T17:59:24.236Z,16.90
2022-09-14T18:01:52.189Z,16.86
2022-09-14T18:04:20.155Z,16.84
2022-09-14T18:06:49.784Z,16.78
2022-09-14T18:09:19.679Z,16.72
2022-09-14T18:11:48.271Z,16.66
2022-09-14T18:14:17.529Z,16.61
2022-09-14T18:16:45.789Z,16.58
2022-09-14T18:19:14.849Z,16.54
2022-09-14T18:21:44.412Z,16.50
2022-09-14T18:24:14.859Z,16.45
2022-09-14T18:26:43.581Z,16.39
2022-09-14T18:29:14.992Z,16.36
2022-09-14T18:31:44.623Z,16.30
2022-09-14T18:34:12.658Z,16.22
2022-09-14T18:36:40.484Z,16.24
2022-09-14T18:39:08.471Z,16.23
2022-09-14T18:41:36.388Z,16.24
2022-09-14T18:44:04.894Z,16.24
2022-09-14T18:46:33.283Z,16.24
2022-09-14T18:49:03.285Z,16.22
2022-09-14T18:51:32.440Z,16.23
2022-09-14T18:54:03.225Z,16.21
2022-09-14T18:56:33.289Z,16.21
2022-09-14T18:59:02.415Z,16.18
2022-09-14T19:01:30.311Z,16.17
2022-09-14T19:03:58.165Z,16.16
2022-09-14T19:06:27.320Z,16.15
2022-09-14T19:08:55.578Z,16.12
2022-09-14T19:11:26.708Z,16.09
2022-09-14T19:13:56.662Z,16.08
2022-09-14T19:16:24.919Z,16.05
2022-09-14T19:18:53.118Z,15.99
2022-09-14T19:21:24.119Z,15.96
2022-09-14T19:24:00.359Z,15.94
2022-09-14T19:26:30.822Z,15.88
2022-09-14T19:29:01.369Z,15.86
2022-09-14T19:31:30.749Z,15.81
2022-09-14T19:33:59.175Z,15.79
2022-09-14T19:36:27.655Z,15.76
2022-09-14T19:38:57.967Z,15.73
2022-09-14T19:41:26.248Z,15.71
2022-09-14T19:43:54.074Z,15.69
2022-09-14T19:46:23.329Z,15.66
2022-09-14T19:48:52.024Z,15.64
2022-09-14T19:51:22.143Z,15.59
2022-09-14T19:53:52.031Z,15.55
2022-09-14T19:56:22.959Z,15.51
2022-09-14T19:58:53.560Z,15.50
2022-09-14T20:01:23.490Z,15.49
2022-09-14T20:03:51.475Z,15.48
2022-09-14T20:06:22.644Z,15.46
2022-09-14T20:08:51.786Z,15.46
2022-09-14T20:11:23.982Z,15.43
2022-09-14T20:13:53.930Z,15.47
2022-09-14T20:16:23.959Z,15.47
2022-09-14T20:18:52.957Z,15.48
2022-09-14T20:21:22.797Z,15.48
2022-09-14T20:24:16.087Z,15.51
2022-09-14T20:26:46.852Z,15.52
2022-09-14T20:29:15.150Z,15.49
2022-09-14T20:31:43.526Z,15.50
2022-09-14T20:34:12.062Z,15.52
2022-09-14T20:36:39.791Z,15.51
2022-09-14T20:39:07.617Z,15.46
2022-09-14T20:41:36.672Z,15.43
2022-09-14T20:44:06.315Z,15.43
2022-09-14T20:46:38.504Z,15.40
2022-09-14T20:49:09.641Z,15.39
2022-09-14T20:51:37.516Z,15.38
2022-09-14T20:54:05.977Z,15.36
2022-09-14T20:56:35.686Z,15.33
2022-09-14T20:59:09.530Z,15.35
2022-09-14T21:01:39.639Z,15.38
2022-09-14T21:04:09.521Z,15.42
2022-09-14T21:06:39.171Z,15.48
2022-09-14T21:09:07.451Z,15.53
2022-09-14T21:11:36.039Z,15.56
2022-09-14T21:14:03.820Z,15.62
2022-09-14T21:16:34.314Z,15.65
2022-09-14T21:19:04.377Z,15.66
2022-09-14T21:21:32.583Z,15.69
2022-09-14T21:24:01.037Z,15.73
2022-09-14T21:26:32.010Z,15.74
2022-09-14T21:29:01.543Z,15.76
2022-09-14T21:31:30.275Z,15.77
2022-09-14T21:34:01.768Z,15.77
2022-09-14T21:36:31.830Z,15.77
2022-09-14T21:39:02.420Z,15.78
2022-09-14T21:41:31.785Z,15.79
2022-09-14T21:43:59.978Z,15.77
2022-09-14T21:46:28.178Z,15.77
2022-09-14T21:48:56.947Z,15.79
2022-09-14T21:51:28.093Z,15.79
2022-09-14T21:53:57.630Z,15.76
2022-09-14T21:56:27.952Z,15.71
2022-09-14T21:58:57.321Z,15.68
2022-09-14T22:01:26.095Z,15.63
2022-09-14T22:03:55.236Z,15.58
2022-09-14T22:06:25.260Z,15.54
2022-09-14T22:08:55.027Z,15.53
2022-09-14T22:11:25.074Z,15.51
2022-09-14T22:13:56.980Z,15.52
2022-09-14T22:16:26.615Z,15.51
2022-09-14T22:18:55.916Z,15.54
2022-09-14T22:21:24.989Z,15.50
2022-09-14T22:23:56.738Z,15.44
2022-09-14T22:26:25.688Z,15.37
2022-09-14T22:28:54.489Z,15.32
2022-09-14T22:31:23.861Z,15.26
2022-09-14T22:33:52.108Z,15.25
2022-09-14T22:36:19.976Z,15.19
2022-09-14T22:38:47.868Z,15.19
2022-09-14T22:41:19.593Z,15.18
2022-09-14T22:43:47.888Z,15.19
2022-09-14T22:46:17.076Z,15.20
2022-09-14T22:48:45.373Z,15.15
2022-09-14T22:51:15.561Z,15.18
2022-09-14T22:53:43.835Z,15.08
2022-09-14T22:56:15.717Z,15.04
2022-09-14T22:58:45.348Z,15.06
2022-09-14T23:01:15.363Z,15.00
2022-09-14T23:03:43.819Z,14.97
2022-09-14T23:06:11.977Z,14.98
2022-09-14T23:08:39.727Z,14.98
2022-09-14T23:11:10.743Z,14.94
2022-09-14T23:13:39.752Z,14.94
2022-09-14T23:16:13.219Z,14.97
2022-09-14T23:18:41.836Z,14.94
2022-09-14T23:21:10.571Z,14.90
2022-09-14T23:23:39.210Z,14.84
2022-09-14T23:26:09.149Z,14.76
2022-09-14T23:28:37.514Z,14.74
2022-09-14T23:31:05.991Z,14.70
2022-09-14T23:33:35.441Z,14.62
2022-09-14T23:36:03.517Z,14.58
2022-09-14T23:38:31.307Z,14.60
2022-09-14T23:40:59.508Z,14.54
2022-09-14T23:43:27.217Z,14.53
2022-09-14T23:45:55.039Z,14.49
2022-09-14T23:48:22.990Z,14.48
2022-09-14T23:50:58.717Z,14.47
2022-09-14T23:53:27.337Z,14.44
2022-09-14T23:55:55.651Z,14.40
2022-09-14T23:58:24.289Z,14.39
